createdAt,value
2023-01-04T00:00:16.407Z,71.38
2023-01-04T00:05:17.170Z,70.59
2023-01-04T00:10:17.837Z,70.81
2023-01-04T00:15:20.072Z,71.29
2023-01-04T00:20:20.769Z,71.63
2023-01-04T00:25:21.445Z,72.05
2023-01-04T00:30:24.096Z,71.57
2023-01-04T00:35:44.824Z,72.88
2023-01-04T00:40:45.682Z,71.77
2023-01-04T00:45:47.890Z,71.62
2023-01-04T00:50:50.244Z,71.35
2023-01-04T00:55:50.945Z,71.56
2023-01-04T01:00:52.937Z,70.93
2023-01-04T01:05:53.602Z,71.78
2023-01-04T01:10:54.666Z,71.96
2023-01-04T01:15:56.786Z,72.79
2023-01-04T01:20:57.530Z,72.21
2023-01-04T01:26:01.167Z,72.77
2023-01-04T01:31:08.802Z,73.05
2023-01-04T01:36:10.954Z,73.54
2023-01-04T01:41:18.317Z,74.07
2023-01-04T01:46:24.586Z,73.73
2023-01-04T01:51:25.744Z,73.33
2023-01-04T01:56:29.379Z,73.57
2023-01-04T02:01:31.510Z,73.52
2023-01-04T02:06:35.518Z,73.91
2023-01-04T02:11:36.167Z,73.80
2023-01-04T02:17:06.289Z,74.36
2023-01-04T02:22:36.557Z,73.97
2023-01-04T02:27:50.355Z,73.70
2023-01-04T02:33:04.182Z,74.04
2023-01-04T02:38:15.953Z,74.59
2023-01-04T02:43:40.055Z,73.92
2023-01-04T02:49:00.275Z,74.37
2023-01-04T02:54:05.357Z,73.58
2023-01-04T02:59:23.666Z,73.79
2023-01-04T03:04:56.906Z,73.73
2023-01-04T03:10:05.686Z,73.28
2023-01-04T03:15:13.685Z,73.80
2023-01-04T03:20:18.861Z,73.49
2023-01-04T03:25:41.031Z,73.60
2023-01-04T03:31:06.721Z,73.49
2023-01-04T03:36:19.075Z,74.16
2023-01-04T03:41:44.184Z,74.07
2023-01-04T03:47:08.084Z,75.15
2023-01-04T03:52:13.037Z,75.12
2023-01-04T03:57:15.489Z,75.63
2023-01-04T04:02:19.181Z,76.69
2023-01-04T04:07:38.859Z,76.50
2023-01-04T04:12:39.610Z,77.02
2023-01-04T04:17:40.267Z,77.07
2023-01-04T04:22:42.550Z,77.06
2023-01-04T04:27:43.220Z,76.75
2023-01-04T04:32:43.935Z,77.56
2023-01-04T04:37:45.945Z,77.07
2023-01-04T04:42:46.944Z,77.40
2023-01-04T04:47:47.613Z,77.50
2023-01-04T04:52:55.672Z,76.52
2023-01-04T04:57:56.809Z,76.68
2023-01-04T05:02:59.592Z,77.03
2023-01-04T05:08:01.829Z,77.00
2023-01-04T05:13:02.523Z,76.36
2023-01-04T05:18:03.743Z,77.98
2023-01-04T05:23:06.798Z,74.92
2023-01-04T05:28:07.643Z,75.34
2023-01-04T05:33:09.121Z,75.79
2023-01-04T05:38:11.291Z,75.52
2023-01-04T05:43:13.737Z,75.57
2023-01-04T05:48:14.485Z,74.92
2023-01-04T05:53:18.945Z,74.68
2023-01-04T05:58:19.645Z,75.22
2023-01-04T06:03:20.451Z,74.57
2023-01-04T06:08:22.576Z,74.67
2023-01-04T06:13:23.341Z,75.25
2023-01-04T06:18:24.015Z,74.83
2023-01-04T06:23:26.030Z,74.96
2023-01-04T06:28:26.727Z,74.24
2023-01-04T06:33:27.420Z,74.26
2023-01-04T06:38:29.522Z,73.86
2023-01-04T06:43:30.249Z,73.88
2023-01-04T06:48:30.889Z,73.18
2023-01-04T06:53:32.921Z,73.50
2023-01-04T06:58:33.595Z,73.26
2023-01-04T07:03:34.409Z,73.07
2023-01-04T07:08:36.471Z,73.65
2023-01-04T07:13:37.172Z,73.61
2023-01-04T07:18:37.979Z,72.70
2023-01-04T07:23:40.103Z,72.03
2023-01-04T07:29:00.671Z,72.27
2023-01-04T07:34:01.325Z,72.06
2023-01-04T07:39:03.711Z,72.31
2023-01-04T07:44:04.551Z,71.33
2023-01-04T07:49:08.988Z,70.69
2023-01-04T07:54:13.751Z,69.96
2023-01-04T07:59:16.393Z,69.12
2023-01-04T08:04:17.199Z,68.38
2023-01-04T08:09:20.061Z,68.28
2023-01-04T08:14:20.740Z,68.30
2023-01-04T08:19:22.758Z,68.06
2023-01-04T08:24:24.825Z,68.89
2023-01-04T08:29:29.589Z,69.78
2023-01-04T08:34:35.147Z,70.30
2023-01-04T08:39:37.398Z,71.19
2023-01-04T08:44:38.159Z,71.14
2023-01-04T08:49:38.884Z,70.83
2023-01-04T08:54:40.964Z,70.64
2023-01-04T08:59:41.684Z,70.22
2023-01-04T09:04:42.415Z,70.68
2023-01-04T09:09:44.674Z,71.31
2023-01-04T09:14:45.456Z,70.53
2023-01-04T09:19:46.163Z,70.64
2023-01-04T09:24:48.240Z,69.88
2023-01-04T09:29:48.997Z,70.00
2023-01-04T09:34:49.763Z,69.54
2023-01-04T09:39:51.941Z,70.22
2023-01-04T09:45:23.297Z,70.87
2023-01-04T09:50:22.040Z,71.63
2023-01-04T09:55:37.112Z,73.03
2023-01-04T10:00:45.906Z,73.28
2023-01-04T10:05:46.656Z,73.90
2023-01-04T10:11:03.850Z,73.77
2023-01-04T10:16:17.679Z,72.60
2023-01-04T10:21:41.453Z,73.51
2023-01-04T10:26:47.966Z,75.59
2023-01-04T10:31:55.141Z,74.16
2023-01-04T10:37:00.216Z,74.19
2023-01-04T10:42:13.424Z,75.00
2023-01-04T10:47:20.995Z,77.33
2023-01-04T10:52:26.960Z,76.37
2023-01-04T10:57:35.324Z,78.30
2023-01-04T11:02:42.491Z,79.79
2023-01-04T11:07:48.940Z,78.79
2023-01-04T11:12:51.092Z,78.17
2023-01-04T11:17:52.813Z,77.51
2023-01-04T11:22:59.787Z,77.33
2023-01-04T11:28:08.409Z,75.97
2023-01-04T11:33:14.761Z,76.72
2023-01-04T11:38:18.372Z,75.42
2023-01-04T11:43:21.998Z,74.41
2023-01-04T11:48:39.801Z,73.92
2023-01-04T11:53:40.516Z,73.22
2023-01-04T11:58:44.001Z,72.68
2023-01-04T12:03:45.801Z,72.84
2023-01-04T12:08:47.678Z,72.18
2023-01-04T12:13:49.802Z,74.48
2023-01-04T12:18:51.657Z,73.80
2023-01-04T12:23:53.762Z,74.92
2023-01-04T12:29:49.910Z,76.66
2023-01-04T12:34:50.638Z,77.09
2023-01-04T12:39:51.654Z,76.95
2023-01-04T12:45:24.928Z,73.84
2023-01-04T12:50:27.690Z,76.47
2023-01-04T12:55:53.493Z,76.35
2023-01-04T13:01:25.553Z,77.35
2023-01-04T13:06:28.944Z,77.72
2023-01-04T13:11:42.741Z,78.16
2023-01-04T13:16:57.105Z,79.45
2023-01-04T13:21:58.960Z,78.64
2023-01-04T13:27:08.402Z,76.17
2023-01-04T13:32:13.107Z,76.73
2023-01-04T13:37:27.354Z,75.02
2023-01-04T13:42:30.852Z,75.41
2023-01-04T13:47:36.491Z,74.84
2023-01-04T13:53:05.743Z,73.72
2023-01-04T13:57:59.885Z,74.07
2023-01-04T14:03:13.982Z,72.17
2023-01-04T14:08:21.780Z,71.83
2023-01-04T14:13:22.464Z,71.00
2023-01-04T14:18:29.726Z,69.25
2023-01-04T14:23:35.483Z,69.19
2023-01-04T14:28:43.165Z,68.89
2023-01-04T14:33:53.516Z,69.05
2023-01-04T14:39:01.773Z,70.44
2023-01-04T14:44:14.688Z,71.96
2023-01-04T14:49:19.803Z,72.22
2023-01-04T14:54:25.028Z,71.53
2023-01-04T14:59:27.163Z,70.13
2023-01-04T15:04:29.332Z,69.41
2023-01-04T15:09:31.282Z,68.87
2023-01-04T15:14:31.965Z,70.29
2023-01-04T15:19:37.770Z,73.58
2023-01-04T15:24:39.053Z,74.26
2023-01-04T15:29:39.804Z,74.02
2023-01-04T15:34:46.662Z,73.02
2023-01-04T15:39:48.267Z,73.61
2023-01-04T15:44:48.961Z,72.04
2023-01-04T15:49:51.056Z,73.05
2023-01-04T15:54:51.794Z,71.82
2023-01-04T15:59:52.566Z,73.39
2023-01-04T16:04:54.625Z,74.13
2023-01-04T16:09:55.422Z,73.99
2023-01-04T16:14:56.156Z,74.40
2023-01-04T16:19:58.216Z,73.94
2023-01-04T16:25:14.310Z,74.06
2023-01-04T16:30:15.593Z,73.60
2023-01-04T16:35:17.876Z,72.63
2023-01-04T16:40:18.680Z,73.32
2023-01-04T16:45:20.194Z,72.92
2023-01-04T16:50:22.311Z,72.91
2023-01-04T16:55:24.223Z,72.30
2023-01-04T17:00:25.262Z,71.70
2023-01-04T17:05:27.299Z,71.30
2023-01-04T17:10:29.809Z,70.62
2023-01-04T17:15:46.125Z,70.72
2023-01-04T17:20:55.537Z,70.38
2023-01-04T17:26:03.198Z,69.67
2023-01-04T17:31:06.804Z,69.29
2023-01-04T17:36:11.902Z,69.98
2023-01-04T17:41:14.690Z,68.37
2023-01-04T17:46:22.557Z,67.57
2023-01-04T17:51:26.110Z,68.23
2023-01-04T17:56:29.002Z,67.46
2023-01-04T18:01:30.848Z,67.78
2023-01-04T18:06:35.000Z,66.58
2023-01-04T18:11:36.301Z,67.57
2023-01-04T18:16:56.253Z,65.33
2023-01-04T18:22:01.487Z,66.36
2023-01-04T18:27:21.097Z,66.43
2023-01-04T18:32:23.778Z,65.70
2023-01-04T18:37:25.869Z,65.73
2023-01-04T18:42:26.625Z,65.35
2023-01-04T18:47:27.944Z,63.97
2023-01-04T18:52:30.209Z,64.09
2023-01-04T18:57:30.923Z,64.14
2023-01-04T19:02:31.732Z,63.90
2023-01-04T19:07:38.753Z,64.92
2023-01-04T19:12:39.451Z,63.93
2023-01-04T19:17:40.209Z,64.09
2023-01-04T19:22:42.297Z,64.37
2023-01-04T19:27:43.003Z,63.10
2023-01-04T19:32:43.808Z,63.90
2023-01-04T19:37:45.827Z,63.09
2023-01-04T19:42:47.091Z,62.42
2023-01-04T19:47:50.540Z,62.20
2023-01-04T19:52:52.819Z,62.18
2023-01-04T19:57:53.796Z,62.17
2023-01-04T20:02:54.723Z,62.93
2023-01-04T20:07:56.890Z,63.23
2023-01-04T20:12:57.750Z,63.08
2023-01-04T20:17:58.508Z,63.48
2023-01-04T20:23:00.587Z,63.37
2023-01-04T20:28:01.380Z,64.62
2023-01-04T20:33:02.497Z,64.31
2023-01-04T20:38:04.665Z,65.21
2023-01-04T20:43:23.124Z,65.93
2023-01-04T20:48:24.670Z,66.62
2023-01-04T20:53:26.769Z,67.58
2023-01-04T20:58:27.443Z,67.24
2023-01-04T21:03:28.244Z,67.93
2023-01-04T21:08:31.096Z,68.21
2023-01-04T21:13:31.999Z,67.60
2023-01-04T21:18:33.853Z,67.01
2023-01-04T21:23:36.619Z,66.80
2023-01-04T21:28:37.574Z,66.19
2023-01-04T21:33:38.393Z,66.64
2023-01-04T21:38:40.415Z,67.11
2023-01-04T21:43:41.769Z,68.61
2023-01-04T21:48:43.251Z,69.38
2023-01-04T21:53:45.350Z,70.51
2023-01-04T21:58:46.181Z,70.85
2023-01-04T22:03:47.331Z,70.53
2023-01-04T22:08:50.023Z,68.87
2023-01-04T22:13:50.876Z,68.35
2023-01-04T22:18:52.140Z,66.09
2023-01-04T22:23:55.253Z,66.13
2023-01-04T22:28:56.037Z,65.08
2023-01-04T22:33:56.744Z,65.59
2023-01-04T22:38:58.951Z,64.63
2023-01-04T22:44:01.572Z,64.30
2023-01-04T22:49:03.404Z,63.27
2023-01-04T22:54:06.560Z,63.39
2023-01-04T22:59:07.244Z,61.95
2023-01-04T23:04:08.062Z,60.91
2023-01-04T23:09:11.913Z,61.60
2023-01-04T23:14:14.589Z,61.81
2023-01-04T23:19:17.731Z,61.46
2023-01-04T23:24:19.786Z,62.78
2023-01-04T23:29:20.518Z,63.60
2023-01-04T23:34:21.203Z,64.95
2023-01-04T23:39:23.310Z,65.95
2023-01-04T23:44:25.471Z,66.77
2023-01-04T23:49:27.695Z,66.63
2023-01-04T23:54:30.219Z,66.34
2023-01-04T23:59:31.510Z,66.14
